sensor_id;sensor_type;location;lat;lon;timestamp;P1;durP1;ratioP1;P2;durP2;ratioP2
11135;SDS011;5622;50.840;4.948;2023-02-28T00:01:18;7.33;;;4.50;;
11135;SDS011;5622;50.840;4.948;2023-02-28T00:03:47;6.67;;;4.10;;
11135;SDS011;5622;50.840;4.948;2023-02-28T00:06:15;5.17;;;4.40;;
11135;SDS011;5622;50.840;4.948;2023-02-28T00:08:42;6.83;;;4.50;;
11135;SDS011;5622;50.840;4.948;2023-02-28T00:11:10;6.83;;;4.83;;
11135;SDS011;5622;50.840;4.948;2023-02-28T00:13:39;8.13;;;4.23;;
11135;SDS011;5622;50.840;4.948;2023-02-28T00:16:09;5.17;;;4.37;;
11135;SDS011;5622;50.840;4.948;2023-02-28T00:18:38;6.77;;;4.40;;
11135;SDS011;5622;50.840;4.948;2023-02-28T00:21:07;4.97;;;4.13;;
11135;SDS011;5622;50.840;4.948;2023-02-28T00:23:35;6.60;;;4.43;;
11135;SDS011;5622;50.840;4.948;2023-02-28T00:26:02;9.10;;;4.27;;
11135;SDS011;5622;50.840;4.948;2023-02-28T00:28:30;6.40;;;4.40;;
11135;SDS011;5622;50.840;4.948;2023-02-28T00:30:57;6.13;;;4.50;;
11135;SDS011;5622;50.840;4.948;2023-02-28T00:33:25;4.90;;;4.00;;
11135;SDS011;5622;50.840;4.948;2023-02-28T00:35:52;5.57;;;3.90;;
11135;SDS011;5622;50.840;4.948;2023-02-28T00:38:29;5.03;;;4.53;;
11135;SDS011;5622;50.840;4.948;2023-02-28T00:40:57;9.63;;;4.70;;
11135;SDS011;5622;50.840;4.948;2023-02-28T00:43:29;5.27;;;4.13;;
11135;SDS011;5622;50.840;4.948;2023-02-28T00:45:57;6.13;;;4.70;;
11135;SDS011;5622;50.840;4.948;2023-02-28T00:48:24;7.67;;;4.87;;
11135;SDS011;5622;50.840;4.948;2023-02-28T00:50:51;7.93;;;4.67;;
11135;SDS011;5622;50.840;4.948;2023-02-28T00:53:18;6.40;;;4.43;;
11135;SDS011;5622;50.840;4.948;2023-02-28T00:55:49;6.90;;;4.43;;
11135;SDS011;5622;50.840;4.948;2023-02-28T00:58:16;7.90;;;4.27;;
11135;SDS011;5622;50.840;4.948;2023-02-28T01:00:43;9.80;;;5.07;;
11135;SDS011;5622;50.840;4.948;2023-02-28T01:03:14;6.33;;;4.50;;
11135;SDS011;5622;50.840;4.948;2023-02-28T01:05:42;5.40;;;4.37;;
11135;SDS011;5622;50.840;4.948;2023-02-28T01:08:09;6.33;;;4.33;;
11135;SDS011;5622;50.840;4.948;2023-02-28T01:10:36;6.53;;;4.27;;
11135;SDS011;5622;50.840;4.948;2023-02-28T01:13:04;6.90;;;4.50;;
11135;SDS011;5622;50.840;4.948;2023-02-28T01:15:32;8.87;;;4.60;;
11135;SDS011;5622;50.840;4.948;2023-02-28T01:17:59;7.07;;;4.33;;
11135;SDS011;5622;50.840;4.948;2023-02-28T01:20:26;6.20;;;4.33;;
11135;SDS011;5622;50.840;4.948;2023-02-28T01:22:53;6.20;;;4.90;;
11135;SDS011;5622;50.840;4.948;2023-02-28T01:25:20;6.30;;;4.73;;
11135;SDS011;5622;50.840;4.948;2023-02-28T01:27:48;6.50;;;4.53;;
11135;SDS011;5622;50.840;4.948;2023-02-28T01:30:16;6.00;;;4.83;;
11135;SDS011;5622;50.840;4.948;2023-02-28T01:32:43;6.30;;;4.70;;
11135;SDS011;5622;50.840;4.948;2023-02-28T01:35:10;7.20;;;5.20;;
11135;SDS011;5622;50.840;4.948;2023-02-28T01:37:38;8.70;;;4.60;;
11135;SDS011;5622;50.840;4.948;2023-02-28T01:40:05;9.20;;;5.33;;
11135;SDS011;5622;50.840;4.948;2023-02-28T01:42:33;7.23;;;4.80;;
11135;SDS011;5622;50.840;4.948;2023-02-28T01:45:02;6.63;;;4.90;;
11135;SDS011;5622;50.840;4.948;2023-02-28T01:47:42;7.57;;;4.90;;
11135;SDS011;5622;50.840;4.948;2023-02-28T01:50:12;6.37;;;4.93;;
11135;SDS011;5622;50.840;4.948;2023-02-28T01:52:42;7.80;;;5.00;;
11135;SDS011;5622;50.840;4.948;2023-02-28T01:55:12;7.93;;;5.07;;
11135;SDS011;5622;50.840;4.948;2023-02-28T01:57:43;7.43;;;5.30;;
11135;SDS011;5622;50.840;4.948;2023-02-28T02:00:15;7.33;;;5.10;;
11135;SDS011;5622;50.840;4.948;2023-02-28T02:02:46;7.17;;;5.07;;
11135;SDS011;5622;50.840;4.948;2023-02-28T02:05:18;7.20;;;5.07;;
11135;SDS011;5622;50.840;4.948;2023-02-28T02:07:46;5.90;;;4.80;;
11135;SDS011;5622;50.840;4.948;2023-02-28T02:10:17;7.73;;;5.07;;
11135;SDS011;5622;50.840;4.948;2023-02-28T02:13:02;7.03;;;5.07;;
11135;SDS011;5622;50.840;4.948;2023-02-28T02:15:39;4.87;;;4.40;;
11135;SDS011;5622;50.840;4.948;2023-02-28T02:18:16;8.90;;;5.17;;
11135;SDS011;5622;50.840;4.948;2023-02-28T02:21:04;6.57;;;4.90;;
11135;SDS011;5622;50.840;4.948;2023-02-28T02:29:58;7.50;;;5.30;;
11135;SDS011;5622;50.840;4.948;2023-02-28T02:33:01;9.63;;;5.90;;
11135;SDS011;5622;50.840;4.948;2023-02-28T02:35:39;9.60;;;5.37;;
11135;SDS011;5622;50.840;4.948;2023-02-28T02:38:13;6.83;;;5.40;;
11135;SDS011;5622;50.840;4.948;2023-02-28T02:40:47;8.60;;;5.20;;
11135;SDS011;5622;50.840;4.948;2023-02-28T02:43:22;7.27;;;5.10;;
11135;SDS011;5622;50.840;4.948;2023-02-28T02:45:56;8.13;;;5.10;;
11135;SDS011;5622;50.840;4.948;2023-02-28T02:48:26;6.90;;;5.13;;
11135;SDS011;5622;50.840;4.948;2023-02-28T02:50:59;5.93;;;5.27;;
11135;SDS011;5622;50.840;4.948;2023-02-28T02:53:30;9.17;;;5.07;;
11135;SDS011;5622;50.840;4.948;2023-02-28T02:56:02;7.93;;;5.67;;
11135;SDS011;5622;50.840;4.948;2023-02-28T02:58:32;6.47;;;4.57;;
11135;SDS011;5622;50.840;4.948;2023-02-28T03:01:07;6.77;;;4.97;;
11135;SDS011;5622;50.840;4.948;2023-02-28T03:03:36;7.87;;;5.10;;
11135;SDS011;5622;50.840;4.948;2023-02-28T03:06:06;6.50;;;4.90;;
11135;SDS011;5622;50.840;4.948;2023-02-28T03:08:34;6.83;;;4.83;;
11135;SDS011;5622;50.840;4.948;2023-02-28T03:11:03;6.77;;;5.40;;
11135;SDS011;5622;50.840;4.948;2023-02-28T03:19:51;7.67;;;5.13;;
11135;SDS011;5622;50.840;4.948;2023-02-28T03:22:32;7.63;;;5.77;;
11135;SDS011;5622;50.840;4.948;2023-02-28T03:25:16;6.03;;;5.10;;
11135;SDS011;5622;50.840;4.948;2023-02-28T03:27:51;7.50;;;5.90;;
11135;SDS011;5622;50.840;4.948;2023-02-28T03:30:27;10.73;;;5.50;;
11135;SDS011;5622;50.840;4.948;2023-02-28T03:33:02;6.47;;;5.53;;
11135;SDS011;5622;50.840;4.948;2023-02-28T03:35:34;9.97;;;5.73;;
11135;SDS011;5622;50.840;4.948;2023-02-28T03:38:06;9.03;;;5.90;;
11135;SDS011;5622;50.840;4.948;2023-02-28T03:40:40;8.37;;;5.67;;
11135;SDS011;5622;50.840;4.948;2023-02-28T03:43:13;7.80;;;5.83;;
11135;SDS011;5622;50.840;4.948;2023-02-28T03:45:45;8.83;;;5.83;;
11135;SDS011;5622;50.840;4.948;2023-02-28T03:48:15;8.33;;;6.10;;
11135;SDS011;5622;50.840;4.948;2023-02-28T03:50:45;7.20;;;5.67;;
11135;SDS011;5622;50.840;4.948;2023-02-28T03:53:18;7.87;;;5.83;;
11135;SDS011;5622;50.840;4.948;2023-02-28T03:55:49;7.57;;;5.23;;
11135;SDS011;5622;50.840;4.948;2023-02-28T03:58:23;8.87;;;5.87;;
11135;SDS011;5622;50.840;4.948;2023-02-28T04:00:55;8.07;;;6.00;;
11135;SDS011;5622;50.840;4.948;2023-02-28T04:03:25;8.00;;;5.90;;
11135;SDS011;5622;50.840;4.948;2023-02-28T04:05:53;9.83;;;6.30;;
11135;SDS011;5622;50.840;4.948;2023-02-28T04:08:23;10.43;;;6.10;;
11135;SDS011;5622;50.840;4.948;2023-02-28T04:10:51;8.33;;;6.10;;
11135;SDS011;5622;50.840;4.948;2023-02-28T04:13:23;8.60;;;6.13;;
11135;SDS011;5622;50.840;4.948;2023-02-28T04:15:50;7.03;;;6.07;;
11135;SDS011;5622;50.840;4.948;2023-02-28T04:18:17;8.47;;;6.63;;
11135;SDS011;5622;50.840;4.948;2023-02-28T04:20:44;9.93;;;6.67;;
11135;SDS011;5622;50.840;4.948;2023-02-28T04:23:11;12.57;;;7.27;;
11135;SDS011;5622;50.840;4.948;2023-02-28T04:25:40;10.03;;;6.57;;
11135;SDS011;5622;50.840;4.948;2023-02-28T04:28:07;9.17;;;6.13;;
11135;SDS011;5622;50.840;4.948;2023-02-28T04:30:34;12.23;;;6.60;;
11135;SDS011;5622;50.840;4.948;2023-02-28T04:33:03;9.03;;;5.97;;
11135;SDS011;5622;50.840;4.948;2023-02-28T04:35:30;8.43;;;5.53;;
11135;SDS011;5622;50.840;4.948;2023-02-28T04:37:57;7.57;;;5.80;;
11135;SDS011;5622;50.840;4.948;2023-02-28T04:40:24;8.63;;;6.77;;
11135;SDS011;5622;50.840;4.948;2023-02-28T04:42:53;10.27;;;7.10;;
11135;SDS011;5622;50.840;4.948;2023-02-28T04:45:20;9.93;;;7.10;;
11135;SDS011;5622;50.840;4.948;2023-02-28T04:47:47;11.00;;;7.20;;
11135;SDS011;5622;50.840;4.948;2023-02-28T04:50:14;9.13;;;6.40;;
11135;SDS011;5622;50.840;4.948;2023-02-28T04:52:42;7.80;;;6.63;;
11135;SDS011;5622;50.840;4.948;2023-02-28T04:55:09;12.17;;;7.37;;
11135;SDS011;5622;50.840;4.948;2023-02-28T04:57:36;8.60;;;6.40;;
11135;SDS011;5622;50.840;4.948;2023-02-28T05:00:05;10.57;;;6.90;;
11135;SDS011;5622;50.840;4.948;2023-02-28T05:02:36;11.67;;;6.70;;
11135;SDS011;5622;50.840;4.948;2023-02-28T05:05:04;11.10;;;7.60;;
11135;SDS011;5622;50.840;4.948;2023-02-28T05:07:32;9.90;;;7.30;;
11135;SDS011;5622;50.840;4.948;2023-02-28T05:09:59;10.77;;;7.07;;
11135;SDS011;5622;50.840;4.948;2023-02-28T05:12:26;10.53;;;6.93;;
11135;SDS011;5622;50.840;4.948;2023-02-28T05:14:53;8.33;;;6.63;;
11135;SDS011;5622;50.840;4.948;2023-02-28T05:17:22;10.00;;;7.47;;
11135;SDS011;5622;50.840;4.948;2023-02-28T05:19:49;10.47;;;6.90;;
11135;SDS011;5622;50.840;4.948;2023-02-28T05:22:16;10.57;;;7.83;;
11135;SDS011;5622;50.840;4.948;2023-02-28T05:24:43;12.77;;;7.17;;
11135;SDS011;5622;50.840;4.948;2023-02-28T05:27:11;8.97;;;6.97;;
11135;SDS011;5622;50.840;4.948;2023-02-28T05:29:38;7.87;;;6.50;;
11135;SDS011;5622;50.840;4.948;2023-02-28T05:32:11;10.40;;;7.30;;
11135;SDS011;5622;50.840;4.948;2023-02-28T05:34:40;12.47;;;7.97;;
11135;SDS011;5622;50.840;4.948;2023-02-28T05:37:10;10.13;;;7.83;;
11135;SDS011;5622;50.840;4.948;2023-02-28T05:39:38;10.77;;;7.47;;
11135;SDS011;5622;50.840;4.948;2023-02-28T05:42:06;9.33;;;7.40;;
11135;SDS011;5622;50.840;4.948;2023-02-28T05:44:34;10.67;;;7.63;;
11135;SDS011;5622;50.840;4.948;2023-02-28T05:47:01;11.27;;;8.43;;
11135;SDS011;5622;50.840;4.948;2023-02-28T05:49:28;13.43;;;8.30;;
11135;SDS011;5622;50.840;4.948;2023-02-28T05:51:57;11.50;;;8.40;;
11135;SDS011;5622;50.840;4.948;2023-02-28T05:54:24;10.00;;;7.83;;
11135;SDS011;5622;50.840;4.948;2023-02-28T05:56:51;10.40;;;7.67;;
11135;SDS011;5622;50.840;4.948;2023-02-28T05:59:18;10.70;;;8.00;;
11135;SDS011;5622;50.840;4.948;2023-02-28T06:01:45;15.63;;;9.13;;
11135;SDS011;5622;50.840;4.948;2023-02-28T06:04:14;12.57;;;8.97;;
11135;SDS011;5622;50.840;4.948;2023-02-28T06:06:44;10.57;;;7.90;;
11135;SDS011;5622;50.840;4.948;2023-02-28T06:09:12;12.40;;;7.70;;
11135;SDS011;5622;50.840;4.948;2023-02-28T06:11:40;10.57;;;7.77;;
11135;SDS011;5622;50.840;4.948;2023-02-28T06:14:07;13.73;;;8.47;;
11135;SDS011;5622;50.840;4.948;2023-02-28T06:16:39;15.43;;;9.60;;
11135;SDS011;5622;50.840;4.948;2023-02-28T06:19:06;13.07;;;9.20;;
11135;SDS011;5622;50.840;4.948;2023-02-28T06:21:33;13.30;;;10.53;;
11135;SDS011;5622;50.840;4.948;2023-02-28T06:24:01;16.20;;;9.57;;
11135;SDS011;5622;50.840;4.948;2023-02-28T06:26:30;11.13;;;8.13;;
11135;SDS011;5622;50.840;4.948;2023-02-28T06:28:57;11.13;;;8.67;;
11135;SDS011;5622;50.840;4.948;2023-02-28T06:31:25;12.27;;;9.03;;
11135;SDS011;5622;50.840;4.948;2023-02-28T06:33:54;14.97;;;9.43;;
11135;SDS011;5622;50.840;4.948;2023-02-28T06:36:22;13.80;;;9.23;;
11135;SDS011;5622;50.840;4.948;2023-02-28T06:38:49;11.00;;;8.50;;
11135;SDS011;5622;50.840;4.948;2023-02-28T06:41:20;14.53;;;9.87;;
11135;SDS011;5622;50.840;4.948;2023-02-28T06:43:48;17.17;;;9.93;;
11135;SDS011;5622;50.840;4.948;2023-02-28T06:46:16;13.40;;;9.10;;
11135;SDS011;5622;50.840;4.948;2023-02-28T06:48:43;12.53;;;8.77;;
11135;SDS011;5622;50.840;4.948;2023-02-28T06:51:11;12.13;;;8.60;;
11135;SDS011;5622;50.840;4.948;2023-02-28T06:53:40;12.33;;;9.07;;
11135;SDS011;5622;50.840;4.948;2023-02-28T06:56:08;12.67;;;9.17;;
11135;SDS011;5622;50.840;4.948;2023-02-28T06:58:36;14.83;;;10.77;;
11135;SDS011;5622;50.840;4.948;2023-02-28T07:01:05;21.27;;;14.77;;
11135;SDS011;5622;50.840;4.948;2023-02-28T07:03:34;19.03;;;12.70;;
11135;SDS011;5622;50.840;4.948;2023-02-28T07:06:02;15.33;;;11.70;;
11135;SDS011;5622;50.840;4.948;2023-02-28T07:08:30;16.20;;;12.13;;
11135;SDS011;5622;50.840;4.948;2023-02-28T07:10:57;17.40;;;13.07;;
11135;SDS011;5622;50.840;4.948;2023-02-28T07:13:25;17.80;;;10.07;;
11135;SDS011;5622;50.840;4.948;2023-02-28T07:15:53;13.93;;;9.10;;
11135;SDS011;5622;50.840;4.948;2023-02-28T07:18:22;13.27;;;8.50;;
11135;SDS011;5622;50.840;4.948;2023-02-28T07:20:50;12.43;;;8.67;;
11135;SDS011;5622;50.840;4.948;2023-02-28T07:23:17;9.67;;;7.93;;
11135;SDS011;5622;50.840;4.948;2023-02-28T07:25:45;12.23;;;8.60;;
11135;SDS011;5622;50.840;4.948;2023-02-28T07:28:12;14.10;;;8.43;;
11135;SDS011;5622;50.840;4.948;2023-02-28T07:30:40;10.23;;;7.63;;
11135;SDS011;5622;50.840;4.948;2023-02-28T07:33:08;9.20;;;7.03;;
11135;SDS011;5622;50.840;4.948;2023-02-28T07:35:37;10.47;;;7.83;;
11135;SDS011;5622;50.840;4.948;2023-02-28T07:38:04;11.53;;;7.20;;
11135;SDS011;5622;50.840;4.948;2023-02-28T07:40:32;8.47;;;6.80;;
11135;SDS011;5622;50.840;4.948;2023-02-28T07:43:00;8.67;;;6.83;;
11135;SDS011;5622;50.840;4.948;2023-02-28T07:45:27;9.13;;;6.97;;
11135;SDS011;5622;50.840;4.948;2023-02-28T07:47:56;10.50;;;6.43;;
11135;SDS011;5622;50.840;4.948;2023-02-28T07:50:23;13.13;;;6.97;;
11135;SDS011;5622;50.840;4.948;2023-02-28T07:52:52;10.60;;;6.90;;
11135;SDS011;5622;50.840;4.948;2023-02-28T07:55:19;7.40;;;6.17;;
11135;SDS011;5622;50.840;4.948;2023-02-28T07:57:46;12.43;;;6.60;;
11135;SDS011;5622;50.840;4.948;2023-02-28T08:00:13;10.37;;;6.80;;
11135;SDS011;5622;50.840;4.948;2023-02-28T08:02:41;9.07;;;6.37;;
11135;SDS011;5622;50.840;4.948;2023-02-28T08:05:08;8.10;;;6.10;;
11135;SDS011;5622;50.840;4.948;2023-02-28T08:07:35;11.23;;;7.20;;
11135;SDS011;5622;50.840;4.948;2023-02-28T08:10:04;9.20;;;5.97;;
11135;SDS011;5622;50.840;4.948;2023-02-28T08:12:33;9.53;;;6.70;;
11135;SDS011;5622;50.840;4.948;2023-02-28T08:15:00;9.40;;;6.10;;
11135;SDS011;5622;50.840;4.948;2023-02-28T08:17:28;9.00;;;5.90;;
11135;SDS011;5622;50.840;4.948;2023-02-28T08:19:55;8.53;;;6.20;;
11135;SDS011;5622;50.840;4.948;2023-02-28T08:22:22;8.40;;;5.80;;
11135;SDS011;5622;50.840;4.948;2023-02-28T08:24:49;10.53;;;6.77;;
11135;SDS011;5622;50.840;4.948;2023-02-28T08:27:17;9.10;;;6.10;;
11135;SDS011;5622;50.840;4.948;2023-02-28T08:29:44;9.13;;;5.47;;
11135;SDS011;5622;50.840;4.948;2023-02-28T08:32:12;7.47;;;6.00;;
11135;SDS011;5622;50.840;4.948;2023-02-28T08:34:39;9.97;;;5.53;;
11135;SDS011;5622;50.840;4.948;2023-02-28T08:37:06;6.43;;;4.90;;
11135;SDS011;5622;50.840;4.948;2023-02-28T08:39:33;8.63;;;4.73;;
11135;SDS011;5622;50.840;4.948;2023-02-28T08:42:01;5.97;;;4.73;;
11135;SDS011;5622;50.840;4.948;2023-02-28T08:44:29;6.43;;;4.60;;
11135;SDS011;5622;50.840;4.948;2023-02-28T08:46:57;6.20;;;4.53;;
11135;SDS011;5622;50.840;4.948;2023-02-28T08:49:24;5.70;;;4.27;;
11135;SDS011;5622;50.840;4.948;2023-02-28T08:51:51;5.13;;;4.27;;
11135;SDS011;5622;50.840;4.948;2023-02-28T08:54:19;6.90;;;4.47;;
11135;SDS011;5622;50.840;4.948;2023-02-28T08:56:46;6.57;;;4.80;;
11135;SDS011;5622;50.840;4.948;2023-02-28T08:59:13;7.37;;;4.37;;
11135;SDS011;5622;50.840;4.948;2023-02-28T09:01:42;10.37;;;4.80;;
11135;SDS011;5622;50.840;4.948;2023-02-28T09:04:10;7.17;;;4.63;;
11135;SDS011;5622;50.840;4.948;2023-02-28T09:06:37;6.93;;;4.70;;
11135;SDS011;5622;50.840;4.948;2023-02-28T09:09:04;6.03;;;4.60;;
11135;SDS011;5622;50.840;4.948;2023-02-28T09:11:32;7.50;;;4.70;;
11135;SDS011;5622;50.840;4.948;2023-02-28T09:14:00;7.23;;;4.23;;
11135;SDS011;5622;50.840;4.948;2023-02-28T09:16:28;6.27;;;4.27;;
11135;SDS011;5622;50.840;4.948;2023-02-28T09:18:57;6.77;;;4.00;;
11135;SDS011;5622;50.840;4.948;2023-02-28T09:21:24;5.10;;;3.70;;
11135;SDS011;5622;50.840;4.948;2023-02-28T09:23:51;4.43;;;4.03;;
11135;SDS011;5622;50.840;4.948;2023-02-28T09:26:19;5.43;;;4.30;;
11135;SDS011;5622;50.840;4.948;2023-02-28T09:28:48;5.53;;;4.17;;
11135;SDS011;5622;50.840;4.948;2023-02-28T09:31:17;6.07;;;3.80;;
11135;SDS011;5622;50.840;4.948;2023-02-28T09:33:46;4.37;;;3.97;;
11135;SDS011;5622;50.840;4.948;2023-02-28T09:36:15;5.10;;;4.20;;
11135;SDS011;5622;50.840;4.948;2023-02-28T09:38:42;4.70;;;3.83;;
11135;SDS011;5622;50.840;4.948;2023-02-28T09:41:12;4.03;;;3.30;;
11135;SDS011;5622;50.840;4.948;2023-02-28T09:43:43;4.40;;;3.50;;
11135;SDS011;5622;50.840;4.948;2023-02-28T09:46:21;4.93;;;3.63;;
11135;SDS011;5622;50.840;4.948;2023-02-28T09:48:56;5.23;;;3.53;;
11135;SDS011;5622;50.840;4.948;2023-02-28T09:54:18;5.63;;;3.90;;
11135;SDS011;5622;50.840;4.948;2023-02-28T09:56:49;5.97;;;3.63;;
11135;SDS011;5622;50.840;4.948;2023-02-28T09:59:23;4.77;;;3.67;;
11135;SDS011;5622;50.840;4.948;2023-02-28T10:02:10;6.03;;;3.93;;
11135;SDS011;5622;50.840;4.948;2023-02-28T10:04:46;4.47;;;3.67;;
11135;SDS011;5622;50.840;4.948;2023-02-28T10:07:35;4.57;;;3.77;;
11135;SDS011;5622;50.840;4.948;2023-02-28T10:10:14;4.23;;;3.40;;
11135;SDS011;5622;50.840;4.948;2023-02-28T10:12:48;5.60;;;3.63;;
11135;SDS011;5622;50.840;4.948;2023-02-28T10:15:18;4.40;;;3.43;;
11135;SDS011;5622;50.840;4.948;2023-02-28T10:17:50;7.00;;;3.90;;
11135;SDS011;5622;50.840;4.948;2023-02-28T10:20:23;5.13;;;3.43;;
11135;SDS011;5622;50.840;4.948;2023-02-28T10:22:58;5.10;;;3.50;;
11135;SDS011;5622;50.840;4.948;2023-02-28T10:25:33;5.60;;;3.87;;
11135;SDS011;5622;50.840;4.948;2023-02-28T10:28:05;5.33;;;3.30;;
11135;SDS011;5622;50.840;4.948;2023-02-28T10:30:38;5.20;;;3.27;;
11135;SDS011;5622;50.840;4.948;2023-02-28T10:33:11;5.37;;;3.00;;
11135;SDS011;5622;50.840;4.948;2023-02-28T10:35:47;3.20;;;2.90;;
11135;SDS011;5622;50.840;4.948;2023-02-28T10:38:17;3.47;;;3.10;;
11135;SDS011;5622;50.840;4.948;2023-02-28T10:40:46;5.90;;;3.00;;
11135;SDS011;5622;50.840;4.948;2023-02-28T10:43:23;4.87;;;3.00;;
11135;SDS011;5622;50.840;4.948;2023-02-28T10:45:55;3.63;;;3.00;;
11135;SDS011;5622;50.840;4.948;2023-02-28T10:48:34;3.03;;;2.73;;
11135;SDS011;5622;50.840;4.948;2023-02-28T10:51:04;3.57;;;2.90;;
11135;SDS011;5622;50.840;4.948;2023-02-28T10:53:39;3.70;;;2.63;;
11135;SDS011;5622;50.840;4.948;2023-02-28T10:56:15;6.50;;;2.87;;
11135;SDS011;5622;50.840;4.948;2023-02-28T10:58:47;4.47;;;3.10;;
11135;SDS011;5622;50.840;4.948;2023-02-28T11:01:17;2.93;;;2.60;;
11135;SDS011;5622;50.840;4.948;2023-02-28T11:03:46;3.17;;;2.87;;
11135;SDS011;5622;50.840;4.948;2023-02-28T11:06:15;3.73;;;3.07;;
11135;SDS011;5622;50.840;4.948;2023-02-28T11:08:46;4.20;;;3.00;;
11135;SDS011;5622;50.840;4.948;2023-02-28T11:11:15;3.73;;;2.60;;
11135;SDS011;5622;50.840;4.948;2023-02-28T11:13:43;3.03;;;2.60;;
11135;SDS011;5622;50.840;4.948;2023-02-28T11:16:13;5.03;;;3.23;;
11135;SDS011;5622;50.840;4.948;2023-02-28T11:18:42;3.33;;;2.50;;
11135;SDS011;5622;50.840;4.948;2023-02-28T11:21:19;3.57;;;2.57;;
11135;SDS011;5622;50.840;4.948;2023-02-28T11:23:56;3.80;;;2.80;;
11135;SDS011;5622;50.840;4.948;2023-02-28T11:26:37;2.90;;;2.50;;
11135;SDS011;5622;50.840;4.948;2023-02-28T11:29:11;3.07;;;2.80;;
11135;SDS011;5622;50.840;4.948;2023-02-28T11:31:45;3.00;;;2.70;;
11135;SDS011;5622;50.840;4.948;2023-02-28T11:34:28;3.00;;;2.70;;
11135;SDS011;5622;50.840;4.948;2023-02-28T11:36:57;5.43;;;2.93;;
11135;SDS011;5622;50.840;4.948;2023-02-28T11:39:27;5.33;;;2.83;;
11135;SDS011;5622;50.840;4.948;2023-02-28T11:41:58;3.43;;;2.90;;
11135;SDS011;5622;50.840;4.948;2023-02-28T11:44:55;3.37;;;3.07;;
11135;SDS011;5622;50.840;4.948;2023-02-28T11:47:32;3.10;;;2.80;;
11135;SDS011;5622;50.840;4.948;2023-02-28T11:50:13;3.30;;;2.80;;
11135;SDS011;5622;50.840;4.948;2023-02-28T11:52:56;4.73;;;3.03;;
11135;SDS011;5622;50.840;4.948;2023-02-28T11:55:30;4.60;;;3.50;;
11135;SDS011;5622;50.840;4.948;2023-02-28T11:58:14;2.97;;;2.67;;
11135;SDS011;5622;50.840;4.948;2023-02-28T12:03:43;4.17;;;3.00;;
11135;SDS011;5622;50.840;4.948;2023-02-28T12:06:17;3.10;;;2.60;;
11135;SDS011;5622;50.840;4.948;2023-02-28T12:08:51;3.70;;;2.77;;
11135;SDS011;5622;50.840;4.948;2023-02-28T12:11:31;4.83;;;2.93;;
11135;SDS011;5622;50.840;4.948;2023-02-28T12:17:24;4.07;;;2.57;;
11135;SDS011;5622;50.840;4.948;2023-02-28T12:20:03;3.33;;;2.90;;
11135;SDS011;5622;50.840;4.948;2023-02-28T12:22:39;3.27;;;2.70;;
11135;SDS011;5622;50.840;4.948;2023-02-28T12:28:16;4.17;;;2.77;;
11135;SDS011;5622;50.840;4.948;2023-02-28T12:30:49;4.00;;;2.60;;
11135;SDS011;5622;50.840;4.948;2023-02-28T12:33:21;3.63;;;2.83;;
11135;SDS011;5622;50.840;4.948;2023-02-28T12:35:53;3.90;;;2.80;;
11135;SDS011;5622;50.840;4.948;2023-02-28T12:38:23;3.63;;;2.67;;
11135;SDS011;5622;50.840;4.948;2023-02-28T12:40:54;3.03;;;2.30;;
11135;SDS011;5622;50.840;4.948;2023-02-28T12:43:30;2.53;;;2.33;;
11135;SDS011;5622;50.840;4.948;2023-02-28T12:46:00;2.80;;;2.60;;
11135;SDS011;5622;50.840;4.948;2023-02-28T12:48:31;2.77;;;2.47;;
11135;SDS011;5622;50.840;4.948;2023-02-28T12:51:04;3.30;;;2.40;;
11135;SDS011;5622;50.840;4.948;2023-02-28T12:53:35;2.20;;;2.00;;
11135;SDS011;5622;50.840;4.948;2023-02-28T12:56:16;3.67;;;2.70;;
11135;SDS011;5622;50.840;4.948;2023-02-28T12:58:49;5.43;;;2.73;;
11135;SDS011;5622;50.840;4.948;2023-02-28T13:01:34;6.50;;;2.97;;
11135;SDS011;5622;50.840;4.948;2023-02-28T13:10:24;4.20;;;2.50;;
11135;SDS011;5622;50.840;4.948;2023-02-28T13:13:03;3.00;;;2.77;;
11135;SDS011;5622;50.840;4.948;2023-02-28T13:15:32;3.00;;;2.60;;
11135;SDS011;5622;50.840;4.948;2023-02-28T13:18:03;2.90;;;2.60;;
11135;SDS011;5622;50.840;4.948;2023-02-28T13:20:33;4.80;;;2.70;;
11135;SDS011;5622;50.840;4.948;2023-02-28T13:23:02;4.17;;;2.37;;
11135;SDS011;5622;50.840;4.948;2023-02-28T13:34:46;4.70;;;2.90;;
11135;SDS011;5622;50.840;4.948;2023-02-28T13:37:37;4.17;;;3.00;;
11135;SDS011;5622;50.840;4.948;2023-02-28T13:40:28;3.77;;;2.70;;
11135;SDS011;5622;50.840;4.948;2023-02-28T13:43:02;3.07;;;2.80;;
11135;SDS011;5622;50.840;4.948;2023-02-28T13:45:30;3.37;;;2.70;;
11135;SDS011;5622;50.840;4.948;2023-02-28T13:48:03;8.70;;;3.40;;
11135;SDS011;5622;50.840;4.948;2023-02-28T13:50:34;3.83;;;2.77;;
11135;SDS011;5622;50.840;4.948;2023-02-28T13:56:20;7.03;;;3.30;;
11135;SDS011;5622;50.840;4.948;2023-02-28T13:58:53;3.10;;;2.80;;
11135;SDS011;5622;50.840;4.948;2023-02-28T14:07:29;3.13;;;2.83;;
11135;SDS011;5622;50.840;4.948;2023-02-28T14:10:00;4.43;;;3.20;;
11135;SDS011;5622;50.840;4.948;2023-02-28T14:15:41;3.67;;;3.03;;
11135;SDS011;5622;50.840;4.948;2023-02-28T14:18:23;3.87;;;3.40;;
11135;SDS011;5622;50.840;4.948;2023-02-28T14:20:54;3.67;;;3.10;;
11135;SDS011;5622;50.840;4.948;2023-02-28T14:26:49;6.40;;;3.97;;
11135;SDS011;5622;50.840;4.948;2023-02-28T14:29:51;3.70;;;3.40;;
11135;SDS011;5622;50.840;4.948;2023-02-28T14:32:35;3.60;;;3.30;;
11135;SDS011;5622;50.840;4.948;2023-02-28T14:35:18;3.93;;;3.20;;
11135;SDS011;5622;50.840;4.948;2023-02-28T14:37:54;3.97;;;3.33;;
11135;SDS011;5622;50.840;4.948;2023-02-28T14:40:23;4.70;;;4.20;;
11135;SDS011;5622;50.840;4.948;2023-02-28T14:42:56;4.90;;;3.70;;
11135;SDS011;5622;50.840;4.948;2023-02-28T14:48:47;3.73;;;3.33;;
11135;SDS011;5622;50.840;4.948;2023-02-28T14:51:18;4.17;;;3.40;;
11135;SDS011;5622;50.840;4.948;2023-02-28T14:53:48;3.63;;;3.33;;
11135;SDS011;5622;50.840;4.948;2023-02-28T14:56:24;4.10;;;3.43;;
11135;SDS011;5622;50.840;4.948;2023-02-28T14:58:56;4.37;;;3.30;;
11135;SDS011;5622;50.840;4.948;2023-02-28T15:01:24;4.37;;;3.30;;
11135;SDS011;5622;50.840;4.948;2023-02-28T15:03:59;3.47;;;3.17;;
11135;SDS011;5622;50.840;4.948;2023-02-28T15:06:28;5.17;;;3.20;;
11135;SDS011;5622;50.840;4.948;2023-02-28T15:09:14;3.80;;;3.43;;
11135;SDS011;5622;50.840;4.948;2023-02-28T15:11:45;3.80;;;3.40;;
11135;SDS011;5622;50.840;4.948;2023-02-28T15:14:16;4.87;;;3.60;;
11135;SDS011;5622;50.840;4.948;2023-02-28T15:16:46;6.40;;;3.53;;
11135;SDS011;5622;50.840;4.948;2023-02-28T15:19:20;5.37;;;3.60;;
11135;SDS011;5622;50.840;4.948;2023-02-28T15:21:50;4.60;;;3.27;;
11135;SDS011;5622;50.840;4.948;2023-02-28T15:24:21;7.30;;;3.43;;
11135;SDS011;5622;50.840;4.948;2023-02-28T15:26:54;3.70;;;3.13;;
11135;SDS011;5622;50.840;4.948;2023-02-28T15:29:25;5.17;;;3.20;;
11135;SDS011;5622;50.840;4.948;2023-02-28T15:31:56;3.93;;;3.53;;
11135;SDS011;5622;50.840;4.948;2023-02-28T15:34:33;4.57;;;3.33;;
11135;SDS011;5622;50.840;4.948;2023-02-28T15:37:02;6.30;;;4.23;;
11135;SDS011;5622;50.840;4.948;2023-02-28T15:39:51;3.60;;;3.13;;
11135;SDS011;5622;50.840;4.948;2023-02-28T15:42:20;4.10;;;3.43;;
11135;SDS011;5622;50.840;4.948;2023-02-28T15:44:49;4.50;;;3.47;;
11135;SDS011;5622;50.840;4.948;2023-02-28T15:47:17;4.37;;;3.50;;
11135;SDS011;5622;50.840;4.948;2023-02-28T15:49:47;3.70;;;3.30;;
11135;SDS011;5622;50.840;4.948;2023-02-28T15:52:17;3.57;;;3.27;;
11135;SDS011;5622;50.840;4.948;2023-02-28T15:54:54;4.53;;;3.10;;
11135;SDS011;5622;50.840;4.948;2023-02-28T15:57:22;4.87;;;3.53;;
11135;SDS011;5622;50.840;4.948;2023-02-28T15:59:54;3.47;;;3.17;;
11135;SDS011;5622;50.840;4.948;2023-02-28T16:02:27;3.23;;;2.93;;
11135;SDS011;5622;50.840;4.948;2023-02-28T16:05:02;3.23;;;2.53;;
11135;SDS011;5622;50.840;4.948;2023-02-28T16:07:45;3.30;;;3.00;;
11135;SDS011;5622;50.840;4.948;2023-02-28T16:10:14;4.10;;;3.03;;
11135;SDS011;5622;50.840;4.948;2023-02-28T16:12:41;4.03;;;3.40;;
11135;SDS011;5622;50.840;4.948;2023-02-28T16:15:20;10.27;;;4.17;;
11135;SDS011;5622;50.840;4.948;2023-02-28T16:17:50;3.50;;;3.20;;
11135;SDS011;5622;50.840;4.948;2023-02-28T16:20:18;5.93;;;3.20;;